Time;durP1;ratioP1;P1;durP2;ratioP2;P2;SDS_P1;SDS_P2;PMS_P1;PMS_P2;Temp;Humidity;BMP_temperature;BMP_pressure;BME280_temperature;BME280_humidity;BME280_pressure;Samples;Min_cycle;Max_cycle;Signal;HPM_P1;HPM_P2
2021/10/27 00:01:42;;;;;;;0.75;0.75;;;;;;;4.37;57.51;100091.28;4838356;29;20557;-76
2021/10/27 00:04:09;;;;;;;1.15;1.15;;;;;;;4.34;58.03;100091.38;4839219;29;20092;-76
2021/10/27 00:06:36;;;;;;;1.65;1.60;;;;;;;4.26;58.83;100088.13;4838220;29;20049;-76
2021/10/27 00:09:03;;;;;;;2.63;2.42;;;;;;;4.27;58.36;100084.66;4839238;29;20053;-76
2021/10/27 00:11:30;;;;;;;1.40;1.38;;;;;;;4.18;58.00;100081.44;4823091;29;20057;-76
2021/10/27 00:13:56;;;;;;;6.60;3.80;;;;;;;4.26;58.54;100077.78;4822873;29;20068;-75
2021/10/27 00:16:22;;;;;;;1.13;1.10;;;;;;;4.19;58.87;100080.53;4822983;29;20061;-75
2021/10/27 00:18:49;;;;;;;1.20;1.20;;;;;;;4.19;58.64;100080.53;4823131;29;20402;-76
2021/10/27 00:21:16;;;;;;;2.78;2.67;;;;;;;4.22;58.49;100078.78;4834145;29;20054;-77
2021/10/27 00:23:42;;;;;;;1.75;1.65;;;;;;;4.14;59.22;100074.66;4839410;29;20061;-76
2021/10/27 00:26:08;;;;;;;10.65;1.92;;;;;;;4.18;58.82;100076.28;4837857;29;20608;-76
2021/10/27 00:28:34;;;;;;;2.17;2.08;;;;;;;4.12;58.84;100083.34;4823120;29;20453;-76
2021/10/27 00:31:00;;;;;;;2.53;2.42;;;;;;;4.05;59.52;100074.03;4837656;29;20092;-75
2021/10/27 00:33:27;;;;;;;2.60;2.50;;;;;;;4.05;58.99;100082.63;4837928;29;20110;-77
2021/10/27 00:35:53;;;;;;;2.03;1.92;;;;;;;4.02;59.62;100076.69;4837398;29;20125;-77
2021/10/27 00:38:19;;;;;;;1.30;1.30;;;;;;;3.95;59.83;100067.41;4807664;29;20692;-77
2021/10/27 00:40:46;;;;;;;1.45;1.40;;;;;;;3.91;59.98;100064.03;4837759;29;20114;-77
2021/10/27 00:43:12;;;;;;;1.10;1.10;;;;;;;3.96;59.17;100069.09;4807538;29;20064;-77
2021/10/27 00:45:38;;;;;;;1.13;1.13;;;;;;;3.93;59.95;100059.69;4822679;29;20084;-77
2021/10/27 00:48:05;;;;;;;5.35;1.40;;;;;;;4.02;59.65;100061.19;4822603;29;20085;-78
2021/10/27 00:50:32;;;;;;;6.13;1.23;;;;;;;4.02;58.96;100064.63;4838839;29;20054;-76
2021/10/27 00:52:58;;;;;;;2.10;1.92;;;;;;;3.96;59.67;100059.59;4838801;29;20513;-76
2021/10/27 00:55:24;;;;;;;1.30;1.30;;;;;;;3.86;59.42;100049.56;4837505;29;20137;-76
2021/10/27 00:57:50;;;;;;;1.55;1.50;;;;;;;3.92;59.32;100052.84;4837879;29;20054;-77
2021/10/27 01:00:16;;;;;;;1.95;1.85;;;;;;;3.87;60.08;100061.56;4837337;29;20070;-76
2021/10/27 01:02:43;;;;;;;0.90;0.90;;;;;;;3.93;59.97;100054.50;4837634;29;20054;-77
2021/10/27 01:05:09;;;;;;;1.30;1.30;;;;;;;3.87;60.40;100048.66;4838866;29;20621;-76
2021/10/27 01:07:35;;;;;;;0.60;0.60;;;;;;;3.83;59.68;100034.97;4838735;29;20428;-76
2021/10/27 01:10:01;;;;;;;1.23;1.23;;;;;;;3.86;59.99;100042.63;4837205;29;20131;-76
2021/10/27 01:12:28;;;;;;;1.73;1.73;;;;;;;3.83;60.18;100037.53;4837519;29;20050;-75
2021/10/27 01:14:54;;;;;;;1.98;1.88;;;;;;;3.80;60.10;100029.03;4837450;29;20052;-76
2021/10/27 01:17:20;;;;;;;1.20;1.20;;;;;;;3.81;60.41;100029.00;4837660;29;20058;-76
2021/10/27 01:19:54;;;;;;;2.30;2.13;;;;;;;3.74;60.46;100032.63;4839076;29;20046;-75
2021/10/27 01:22:22;;;;;;;1.67;1.67;;;;;;;3.69;61.04;100024.16;4823173;29;20086;-76
2021/10/27 01:24:48;;;;;;;1.73;1.70;;;;;;;3.69;61.25;100029.31;4822418;29;20054;-75
2021/10/27 01:27:15;;;;;;;3.25;1.88;;;;;;;3.65;61.03;100017.34;4822163;29;20461;-76
2021/10/27 01:29:41;;;;;;;1.02;1.02;;;;;;;3.73;60.73;100025.75;4822140;29;20058;-76
2021/10/27 01:32:08;;;;;;;2.42;2.00;;;;;;;3.72;60.90;100023.22;4822263;29;20512;-75
2021/10/27 01:34:34;;;;;;;2.10;2.00;;;;;;;3.71;61.09;100024.09;4807080;29;20057;-76
2021/10/27 01:37:01;;;;;;;3.08;2.88;;;;;;;3.64;60.84;100023.38;4838262;29;20492;-74
2021/10/27 01:39:27;;;;;;;1.42;1.38;;;;;;;3.60;61.27;100034.66;4822169;29;20054;-74
2021/10/27 01:41:53;;;;;;;2.03;1.92;;;;;;;3.49;61.87;100028.94;4822327;29;20069;-75
2021/10/27 01:44:19;;;;;;;1.33;1.33;;;;;;;3.49;62.09;100026.34;4821931;29;20086;-76
2021/10/27 01:46:46;;;;;;;2.63;2.38;;;;;;;3.42;62.17;100024.78;4822111;29;20420;-74
2021/10/27 01:49:13;;;;;;;2.42;1.90;;;;;;;3.25;62.84;100009.69;4840176;29;20136;-76
2021/10/27 01:51:40;;;;;;;2.88;2.67;;;;;;;3.32;62.70;100018.16;4841623;29;20057;-76
2021/10/27 01:54:07;;;;;;;4.43;2.30;;;;;;;3.33;62.63;100012.97;4825555;29;20072;-76
2021/10/27 01:56:34;;;;;;;1.17;1.17;;;;;;;3.33;62.60;100015.53;4825508;29;20539;-76
2021/10/27 01:59:00;;;;;;;1.17;1.17;;;;;;;3.31;62.78;100013.84;4810480;29;20049;-76
2021/10/27 02:01:26;;;;;;;1.33;1.30;;;;;;;3.27;62.70;100002.78;4841697;29;20514;-77
2021/10/27 02:03:53;;;;;;;1.85;1.70;;;;;;;3.29;63.08;100007.91;4810485;29;20049;-76
2021/10/27 02:06:19;;;;;;;1.80;1.70;;;;;;;3.30;62.53;99988.97;4841583;29;20049;-76
2021/10/27 02:08:45;;;;;;;1.35;1.35;;;;;;;3.25;63.24;100001.09;4841643;29;20061;-77
2021/10/27 02:11:11;;;;;;;2.63;2.42;;;;;;;3.22;63.37;99998.59;4809818;29;20528;-77
2021/10/27 02:13:37;;;;;;;1.70;1.63;;;;;;;3.18;63.37;99990.06;4795154;29;20618;-76
2021/10/27 02:16:03;;;;;;;1.52;1.52;;;;;;;3.17;63.63;100002.13;4824696;29;20144;-78
2021/10/27 02:18:29;;;;;;;2.38;2.17;;;;;;;3.11;63.45;99994.53;4825089;29;20425;-79
2021/10/27 02:20:57;;;;;;;2.35;2.25;;;;;;;3.10;63.62;99995.44;4834111;29;20054;-77
2021/10/27 02:23:23;;;;;;;2.95;1.83;;;;;;;3.01;63.96;99998.19;4841274;29;20046;-78
2021/10/27 02:25:49;;;;;;;1.35;1.35;;;;;;;3.01;64.43;99995.59;4841430;29;20065;-77
2021/10/27 02:28:15;;;;;;;1.52;1.50;;;;;;;2.97;64.07;99986.28;4840528;29;20058;-75
2021/10/27 02:30:41;;;;;;;5.45;2.05;;;;;;;3.02;64.20;99984.41;4846151;29;20309;-77
2021/10/27 02:33:07;;;;;;;1.73;1.73;;;;;;;3.04;63.86;99984.41;4858623;29;20049;-78
2021/10/27 02:35:33;;;;;;;3.42;1.30;;;;;;;3.00;64.54;99993.94;4858406;29;20053;-77
2021/10/27 02:37:59;;;;;;;1.63;1.63;;;;;;;2.93;64.53;99974.31;4836282;29;20520;-78
2021/10/27 02:40:25;;;;;;;3.10;2.70;;;;;;;2.95;64.67;99972.53;4840381;29;20496;-79
2021/10/27 02:42:51;;;;;;;1.02;1.02;;;;;;;3.00;64.29;99972.44;4840482;29;20045;-77
2021/10/27 02:45:17;;;;;;;1.70;1.60;;;;;;;2.96;64.12;99951.03;4839761;29;20062;-77
2021/10/27 02:47:44;;;;;;;2.65;2.55;;;;;;;2.97;64.87;99970.78;4839901;29;20054;-77
2021/10/27 02:50:12;;;;;;;1.05;1.05;;;;;;;2.91;64.78;99967.50;4839314;29;20082;-76
2021/10/27 02:52:38;;;;;;;1.02;1.02;;;;;;;2.85;65.22;99965.88;4839721;29;20061;-77
2021/10/27 02:55:05;;;;;;;1.80;1.80;;;;;;;2.84;65.17;99961.63;4839361;29;20062;-77
2021/10/27 02:57:31;;;;;;;4.03;3.10;;;;;;;2.85;65.30;99959.88;4839293;29;20477;-77
2021/10/27 02:59:57;;;;;;;1.98;1.88;;;;;;;2.93;65.05;99958.84;4839089;29;20089;-77
2021/10/27 03:02:23;;;;;;;1.30;1.20;;;;;;;2.83;65.42;99952.19;4840359;29;20462;-75
2021/10/27 03:04:49;;;;;;;1.13;1.13;;;;;;;2.84;65.26;99956.47;4824243;29;20100;-75
2021/10/27 03:07:15;;;;;;;2.15;2.05;;;;;;;2.79;65.88;99947.97;4840751;29;20053;-77
2021/10/27 03:09:41;;;;;;;1.10;1.10;;;;;;;2.80;65.48;99951.41;4840825;29;20065;-76
2021/10/27 03:12:08;;;;;;;0.85;0.85;;;;;;;2.78;65.65;99950.63;4839255;29;20481;-77
2021/10/27 03:14:34;;;;;;;2.60;2.40;;;;;;;2.74;66.21;99947.25;4840395;29;20226;-76
2021/10/27 03:16:59;;;;;;;2.70;2.60;;;;;;;2.70;66.14;99945.63;4824045;29;20192;-78
2021/10/27 03:19:26;;;;;;;1.35;1.35;;;;;;;2.72;66.46;99935.25;4838801;29;20049;-77
2021/10/27 03:21:53;;;;;;;1.20;1.20;;;;;;;2.75;65.90;99938.63;4823817;29;20101;-78
2021/10/27 03:24:19;;;;;;;2.83;2.63;;;;;;;2.60;66.30;99926.06;4839944;29;20432;-77
2021/10/27 03:26:46;;;;;;;1.98;1.88;;;;;;;2.62;66.74;99927.72;4824023;29;20493;-76
2021/10/27 03:29:13;;;;;;;3.03;2.83;;;;;;;2.61;66.62;99928.63;4840205;29;20053;-78
2021/10/27 03:31:39;;;;;;;1.08;1.08;;;;;;;2.64;66.71;99925.13;4808427;29;20061;-78
2021/10/27 03:34:06;;;;;;;1.13;1.13;;;;;;;2.62;66.87;99917.44;4823546;29;20054;-75
2021/10/27 03:36:32;;;;;;;1.20;1.20;;;;;;;2.63;66.97;99920.84;4823713;29;20171;-76
2021/10/27 03:38:58;;;;;;;3.22;2.33;;;;;;;2.55;67.27;99915.03;4840405;29;20393;-76
2021/10/27 03:41:25;;;;;;;1.40;1.40;;;;;;;2.55;67.22;99922.75;4825819;29;20099;-76
2021/10/27 03:43:51;;;;;;;1.42;1.42;;;;;;;2.56;67.77;99912.41;4825543;29;20053;-74
2021/10/27 03:46:18;;;;;;;2.33;2.20;;;;;;;2.60;67.20;99918.34;4840013;29;20133;-76
2021/10/27 03:48:44;;;;;;;5.90;3.13;;;;;;;2.53;67.70;99903.88;4824028;29;20045;-77
2021/10/27 03:51:13;;;;;;;1.83;1.73;;;;;;;2.43;67.72;99899.81;4808469;29;20062;-77
2021/10/27 03:53:40;;;;;;;1.08;1.05;;;;;;;2.45;67.74;99898.06;4824097;29;20142;-77
2021/10/27 03:56:06;;;;;;;2.42;1.77;;;;;;;2.45;68.10;99887.78;4808371;29;20053;-76
2021/10/27 03:58:33;;;;;;;1.55;1.55;;;;;;;2.44;67.90;99891.22;4839748;29;20113;-78
2021/10/27 04:01:00;;;;;;;1.63;1.52;;;;;;;2.49;67.95;99905.69;4820924;29;20046;-77
2021/10/27 04:03:26;;;;;;;3.78;3.13;;;;;;;2.46;68.17;99892.88;4839378;29;20053;-76
2021/10/27 04:05:52;;;;;;;4.88;3.20;;;;;;;2.49;68.07;99884.22;4823358;29;20054;-80
2021/10/27 04:08:18;;;;;;;1.55;1.55;;;;;;;2.47;68.26;99892.00;4840063;29;20080;-77
2021/10/27 04:10:45;;;;;;;2.03;1.75;;;;;;;2.46;68.71;99890.28;4806691;29;20053;-77
2021/10/27 04:13:15;;;;;;;2.20;2.10;;;;;;;2.45;68.64;99883.47;4839021;29;20065;-77
2021/10/27 04:15:41;;;;;;;2.22;2.03;;;;;;;2.55;67.92;99873.81;4793111;29;20145;-76
2021/10/27 04:18:08;;;;;;;2.90;2.20;;;;;;;2.59;68.15;99875.41;4839020;29;20062;-76
2021/10/27 04:20:34;;;;;;;2.53;2.42;;;;;;;2.60;68.01;99871.97;4832503;29;20174;-77
2021/10/27 04:23:00;;;;;;;1.38;1.38;;;;;;;2.57;67.96;99857.44;4826274;29;20053;-77
2021/10/27 04:25:26;;;;;;;1.77;1.63;;;;;;;2.58;68.36;99877.16;4825016;29;20057;-77
2021/10/27 04:27:52;;;;;;;4.35;2.53;;;;;;;2.64;68.05;99863.28;4843248;29;20135;-77
2021/10/27 04:30:18;;;;;;;2.72;2.60;;;;;;;2.60;68.48;99856.50;4859729;29;20149;-75
2021/10/27 04:32:44;;;;;;;1.25;1.25;;;;;;;2.61;68.02;99864.22;4828596;29;20049;-77
2021/10/27 04:35:11;;;;;;;2.08;1.98;;;;;;;2.65;67.87;99870.13;4845517;29;20076;-78
2021/10/27 04:37:41;;;;;;;1.15;1.15;;;;;;;2.63;68.31;99866.75;4842353;29;20044;-78
2021/10/27 04:40:09;;;;;;;2.63;2.42;;;;;;;2.65;68.37;99859.81;4824464;29;20068;-77
2021/10/27 04:42:35;;;;;;;2.72;2.63;;;;;;;2.74;67.65;99858.78;4823669;29;20044;-77
2021/10/27 04:45:02;;;;;;;1.70;1.70;;;;;;;2.74;68.31;99869.09;4823946;29;20046;-76
2021/10/27 04:47:29;;;;;;;3.50;2.45;;;;;;;2.74;67.94;99853.63;4824122;29;20041;-76
2021/10/27 04:49:55;;;;;;;3.67;2.20;;;;;;;2.79;67.33;99862.94;4824056;29;20132;-77
2021/10/27 04:52:21;;;;;;;3.08;2.85;;;;;;;2.86;67.05;99861.91;4839078;29;20149;-78
2021/10/27 04:54:47;;;;;;;1.83;1.73;;;;;;;2.83;67.30;99856.81;4839104;29;20620;-77
2021/10/27 04:57:13;;;;;;;4.05;3.22;;;;;;;2.88;67.34;99856.72;4832553;29;20057;-78
2021/10/27 04:59:45;;;;;;;1.50;1.40;;;;;;;2.91;67.37;99862.63;4858714;29;20056;-75
2021/10/27 05:02:13;;;;;;;1.08;1.08;;;;;;;2.97;67.28;99867.66;4858514;29;20681;-78
2021/10/27 05:04:41;;;;;;;2.00;1.92;;;;;;;3.00;66.73;99862.44;4841553;29;20061;-77
2021/10/27 05:07:08;;;;;;;1.90;1.80;;;;;;;3.03;66.85;99864.09;4858224;29;20061;-78
2021/10/27 05:09:34;;;;;;;1.80;1.70;;;;;;;3.05;66.50;99865.72;4827853;29;20073;-79
2021/10/27 05:12:03;;;;;;;29.33;1.92;;;;;;;3.07;66.57;99863.97;4841957;29;20049;-77
2021/10/27 05:14:34;;;;;;;2.95;2.72;;;;;;;3.09;66.24;99851.88;4842637;29;20049;-78
2021/10/27 05:17:00;;;;;;;1.80;1.70;;;;;;;3.13;66.53;99862.97;4842629;29;20088;-77
2021/10/27 05:19:26;;;;;;;0.98;0.98;;;;;;;3.15;66.05;99846.56;4855883;29;20045;-77
2021/10/27 05:21:52;;;;;;;2.63;2.45;;;;;;;3.18;66.11;99848.22;4838896;29;20516;-77
2021/10/27 05:24:18;;;;;;;2.30;2.20;;;;;;;3.17;66.25;99849.94;4842222;29;20122;-75
2021/10/27 05:26:44;;;;;;;2.47;2.38;;;;;;;3.21;66.73;99849.91;4825564;29;20144;-76
2021/10/27 05:29:11;;;;;;;4.30;3.50;;;;;;;3.21;65.65;99842.97;4842123;29;20057;-76
2021/10/27 05:31:37;;;;;;;1.13;1.13;;;;;;;3.29;65.67;99864.28;4795710;29;20089;-75
2021/10/27 05:34:03;;;;;;;3.78;3.47;;;;;;;3.31;65.57;99861.66;4826556;29;20069;-76
2021/10/27 05:36:31;;;;;;;1.88;1.80;;;;;;;3.33;65.69;99855.59;4824839;29;20493;-77
2021/10/27 05:38:57;;;;;;;0.85;0.85;;;;;;;3.36;65.68;99854.66;4829882;29;20046;-77
2021/10/27 05:41:24;;;;;;;3.33;3.13;;;;;;;3.43;66.01;99851.91;4841194;29;20685;-76
2021/10/27 05:43:50;;;;;;;1.63;1.52;;;;;;;3.46;65.58;99851.81;4824886;29;20054;-78
2021/10/27 05:46:19;;;;;;;1.52;1.52;;;;;;;3.50;65.39;99852.56;4840890;29;20057;-78
2021/10/27 05:48:48;;;;;;;1.70;1.52;;;;;;;3.52;65.37;99851.66;4841269;29;20081;-77
2021/10/27 05:51:19;;;;;;;7.13;2.63;;;;;;;3.53;65.20;99847.34;4839446;29;20057;-78
2021/10/27 05:56:30;;;;;;;2.15;2.05;;;;;;;3.61;65.12;99847.97;4820499;29;20099;-77
2021/10/27 05:58:56;;;;;;;4.28;3.97;;;;;;;3.64;64.72;99819.47;4809587;29;20057;-77
2021/10/27 06:01:22;;;;;;;12.73;1.60;;;;;;;3.64;64.94;99843.56;4841012;29;20049;-76
2021/10/27 06:03:48;;;;;;;3.05;2.40;;;;;;;3.72;64.78;99837.34;4838454;29;20066;-75
2021/10/27 06:06:15;;;;;;;2.00;1.90;;;;;;;3.75;64.32;99838.13;4809191;29;20087;-75
2021/10/27 06:08:42;;;;;;;2.92;2.72;;;;;;;3.75;65.35;99827.78;4837250;29;20124;-75
2021/10/27 06:11:13;;;;;;;5.30;2.33;;;;;;;3.86;63.78;99841.22;4835668;29;20517;-76
2021/10/27 06:13:46;;;;;;;3.55;2.25;;;;;;;3.85;64.32;99834.41;4840939;29;20105;-76
2021/10/27 06:16:14;;;;;;;2.70;1.77;;;;;;;3.97;64.35;99834.03;4794501;29;20054;-77
2021/10/27 06:18:41;;;;;;;2.22;2.13;;;;;;;4.00;64.52;99844.28;4837604;29;20529;-77
2021/10/27 06:21:11;;;;;;;2.47;2.38;;;;;;;4.03;63.72;99827.84;4807520;29;20520;-78
2021/10/27 06:23:40;;;;;;;1.45;1.45;;;;;;;4.08;63.27;99832.00;4840790;29;20095;-77
2021/10/27 06:26:07;;;;;;;25.50;2.47;;;;;;;4.12;63.46;99827.59;4839306;29;20057;-77
2021/10/27 06:28:42;;;;;;;3.25;3.05;;;;;;;4.18;62.85;99822.25;4837857;29;20053;-76
2021/10/27 06:31:17;;;;;;;2.95;2.75;;;;;;;4.20;62.76;99831.66;4840303;29;20058;-75
2021/10/27 06:33:56;;;;;;;1.15;1.08;;;;;;;4.27;63.17;99826.28;4840317;29;20406;-76
2021/10/27 06:36:38;;;;;;;12.13;2.35;;;;;;;4.26;63.60;99825.44;4840305;29;20046;-77
2021/10/27 06:39:25;;;;;;;2.45;1.52;;;;;;;4.31;63.59;99822.72;4840945;29;20064;-76
2021/10/27 06:47:22;;;;;;;1.02;1.00;;;;;;;4.39;63.12;99810.41;4868671;29;20045;-78
2021/10/27 06:49:48;;;;;;;1.85;1.75;;;;;;;4.39;62.33;99797.47;4856231;29;20056;-78
2021/10/27 06:52:15;;;;;;;11.70;2.78;;;;;;;4.47;61.85;99805.88;4856043;29;20077;-76
2021/10/27 06:54:41;;;;;;;1.83;1.73;;;;;;;4.44;62.66;99793.03;4865139;29;20049;-78
2021/10/27 06:57:07;;;;;;;7.32;2.65;;;;;;;4.51;62.46;99790.22;4842983;29;20049;-77
2021/10/27 06:59:37;;;;;;;2.47;2.33;;;;;;;4.53;62.57;99798.75;4842343;29;20148;-77
2021/10/27 07:15:34;;;;;;;2.03;1.92;;;;;;;4.75;62.57;99786.00;4825671;29;20077;-76
2021/10/27 07:18:01;;;;;;;3.15;2.65;;;;;;;4.75;62.54;99786.00;4839173;29;20678;-75
2021/10/27 07:20:28;;;;;;;2.10;2.00;;;;;;;4.75;62.01;99788.56;4839310;29;20144;-78
2021/10/27 07:22:57;;;;;;;8.40;3.72;;;;;;;4.78;62.20;99788.47;4823559;29;20049;-75
2021/10/27 07:25:23;;;;;;;1.75;1.67;;;;;;;4.82;62.49;99778.88;4823214;29;20201;-76
2021/10/27 07:27:51;;;;;;;5.82;2.20;;;;;;;4.88;61.78;99774.34;4808182;29;20046;-78
2021/10/27 07:30:17;;;;;;;2.58;2.47;;;;;;;4.94;61.83;99771.56;4839487;29;20054;-78
2021/10/27 07:32:43;;;;;;;2.33;2.22;;;;;;;4.97;61.79;99770.63;4822991;29;20054;-76
2021/10/27 07:42:53;;;;;;;3.25;2.97;;;;;;;5.02;61.87;99748.03;4839270;29;20049;-75
2021/10/27 07:45:22;;;;;;;3.45;3.25;;;;;;;5.09;61.10;99745.19;4808094;29;20596;-74
2021/10/27 07:47:49;;;;;;;3.20;2.53;;;;;;;5.14;61.63;99745.88;4838683;29;20062;-77
2021/10/27 07:50:17;;;;;;;2.00;1.85;;;;;;;5.21;61.03;99737.00;4839060;29;20088;-76
2021/10/27 07:52:43;;;;;;;2.65;2.45;;;;;;;5.21;61.30;99737.00;4832834;29;20050;-77
2021/10/27 07:55:11;;;;;;;1.85;1.83;;;;;;;5.20;61.37;99737.88;4839337;29;20081;-79
2021/10/27 07:57:37;;;;;;;7.78;3.50;;;;;;;5.12;61.69;99737.31;4841475;29;20056;-80
2021/10/27 08:00:05;;;;;;;1.38;1.38;;;;;;;5.18;61.65;99739.69;4843610;29;20062;-78
2021/10/27 08:02:39;;;;;;;4.75;4.38;;;;;;;5.12;61.65;99745.09;4839442;29;20046;-79
2021/10/27 08:05:05;;;;;;;2.85;2.63;;;;;;;5.14;61.59;99751.03;4823962;29;20136;-81
2021/10/27 08:07:31;;;;;;;3.33;3.03;;;;;;;5.22;62.57;99743.88;4824109;29;20529;-79
2021/10/27 08:09:57;;;;;;;3.33;3.05;;;;;;;5.30;61.57;99747.94;4823714;29;20146;-79
2021/10/27 08:12:23;;;;;;;3.53;2.20;;;;;;;5.30;62.10;99740.19;4838930;29;20054;-79
2021/10/27 08:14:50;;;;;;;1.42;1.40;;;;;;;5.40;61.70;99736.38;4822864;29;20053;-80
2021/10/27 08:17:17;;;;;;;1.75;1.75;;;;;;;5.56;61.04;99729.72;4823341;29;20136;-78
2021/10/27 08:19:43;;;;;;;2.35;2.22;;;;;;;5.69;60.33;99718.84;4807458;29;20194;-79
2021/10/27 08:22:10;;;;;;;14.70;5.32;;;;;;;5.56;60.74;99719.38;4820965;29;20053;-79
2021/10/27 08:24:37;;;;;;;2.50;2.40;;;;;;;5.68;60.39;99709.41;4822858;29;20616;-78
2021/10/27 08:27:11;;;;;;;2.10;2.00;;;;;;;5.80;60.97;99713.25;4822522;29;20058;-78
2021/10/27 08:29:39;;;;;;;4.35;3.50;;;;;;;5.86;60.54;99701.88;4837469;29;20046;-79
2021/10/27 08:32:18;;;;;;;4.43;4.13;;;;;;;5.85;59.60;99692.38;4823045;29;20054;-80
2021/10/27 08:34:49;;;;;;;11.05;5.20;;;;;;;5.73;60.32;99694.53;4839024;29;20140;-78
2021/10/27 08:37:16;;;;;;;5.05;2.92;;;;;;;5.85;60.61;99708.78;4822538;29;20657;-76
2021/10/27 08:39:42;;;;;;;5.63;2.85;;;;;;;5.88;60.42;99705.25;4838636;29;20524;-76
2021/10/27 08:42:09;;;;;;;1.50;1.50;;;;;;;5.73;60.15;99696.25;4835820;29;20054;-77
2021/10/27 08:44:35;;;;;;;3.38;3.13;;;;;;;5.79;60.95;99699.47;4838419;29;20068;-74
2021/10/27 08:47:02;;;;;;;7.35;3.17;;;;;;;5.86;60.07;99700.09;4829705;29;20050;-74
2021/10/27 08:49:29;;;;;;;9.27;2.45;;;;;;;5.85;60.53;99706.19;4837724;29;20136;-75
2021/10/27 08:51:56;;;;;;;3.75;2.75;;;;;;;5.79;61.13;99698.66;4822197;29;20064;-74
2021/10/27 08:54:24;;;;;;;6.32;4.05;;;;;;;5.84;60.34;99701.88;4801642;29;20057;-73
2021/10/27 08:56:54;;;;;;;2.72;2.25;;;;;;;5.84;60.69;99695.88;4827262;29;20050;-74
2021/10/27 08:59:29;;;;;;;2.78;2.58;;;;;;;5.88;60.92;99700.91;4811498;29;20573;-75
2021/10/27 09:36:09;;;;;;;3.75;2.80;;;;;;;6.27;60.82;99695.91;4841491;29;20123;-78
2021/10/27 10:06:16;;;;;;;2.60;2.47;;;;;;;6.48;60.67;99686.44;4817205;29;20050;-74
2021/10/27 10:08:47;;;;;;;3.40;3.20;;;;;;;6.46;60.55;99670.94;4856824;29;20471;-76
2021/10/27 10:11:18;;;;;;;3.03;2.83;;;;;;;6.44;60.27;99677.09;4835985;29;20126;-75
2021/10/27 10:13:44;;;;;;;4.30;3.88;;;;;;;6.43;60.20;99665.88;4824337;29;20077;-78
2021/10/27 10:16:10;;;;;;;1.67;1.65;;;;;;;6.51;60.15;99679.34;4809297;29;20080;-78
2021/10/27 10:18:37;;;;;;;2.40;2.22;;;;;;;6.61;60.71;99680.66;4809113;29;20058;-79
2021/10/27 10:21:03;;;;;;;10.32;2.58;;;;;;;6.74;60.36;99675.84;4833827;29;20058;-78
2021/10/27 10:23:29;;;;;;;3.40;3.15;;;;;;;6.59;60.66;99671.25;4839188;29;20508;-78
2021/10/27 10:26:02;;;;;;;2.17;2.08;;;;;;;6.58;60.44;99674.75;4827639;29;20054;-76
2021/10/27 10:28:37;;;;;;;4.03;2.30;;;;;;;6.54;60.71;99673.22;4831757;29;20125;-77
2021/10/27 10:31:04;;;;;;;4.68;2.97;;;;;;;6.55;60.80;99665.34;4836813;29;20057;-78
2021/10/27 10:33:35;;;;;;;4.72;4.00;;;;;;;6.48;61.15;99657.91;4820172;29;20054;-76
2021/10/27 10:36:13;;;;;;;3.40;3.15;;;;;;;6.55;60.82;99661.91;4840421;29;20555;-77
2021/10/27 10:41:32;;;;;;;3.22;2.97;;;;;;;6.63;60.87;99662.47;4824329;29;20088;-76
2021/10/27 11:24:48;;;;;;;8.25;4.10;;;;;;;6.89;61.85;99654.41;4838864;29;20060;-77
2021/10/27 11:41:27;;;;;;;2.85;2.65;;;;;;;6.96;61.65;99674.00;4842717;29;20056;-74
2021/10/27 11:44:20;;;;;;;2.42;2.33;;;;;;;7.01;61.90;99664.25;4857468;29;20654;-74
2021/10/27 11:46:56;;;;;;;4.18;2.97;;;;;;;6.94;62.42;99670.63;4857138;29;20064;-77
2021/10/27 11:49:32;;;;;;;2.45;2.35;;;;;;;6.84;62.25;99658.94;4842110;29;20114;-76
2021/10/27 11:51:58;;;;;;;3.72;3.53;;;;;;;6.87;62.58;99668.38;4836635;29;20049;-74
2021/10/27 11:54:27;;;;;;;3.22;3.03;;;;;;;6.86;62.67;99658.88;4848680;29;20080;-75
2021/10/27 11:56:54;;;;;;;3.10;2.90;;;;;;;6.87;62.70;99665.78;4846658;29;20124;-73
2021/10/27 11:59:20;;;;;;;3.85;3.63;;;;;;;6.90;62.15;99663.88;4850676;29;20136;-74
2021/10/27 12:01:54;;;;;;;2.67;2.47;;;;;;;6.92;62.62;99671.59;4855891;29;20056;-77
2021/10/27 12:04:24;;;;;;;2.63;2.42;;;;;;;6.88;62.44;99668.28;4859208;29;20056;-75
2021/10/27 12:15:50;;;;;;;1.85;1.75;;;;;;;6.81;62.87;99674.63;4827119;29;20049;-78
2021/10/27 12:18:06;;;;;;;1.90;1.85;;;;;;;6.80;62.89;99675.56;4848422;29;20141;-78
2021/10/27 12:20:40;;;;;;;3.25;3.03;;;;;;;6.79;63.14;99660.91;4854712;29;20058;-76
2021/10/27 12:23:07;;;;;;;4.45;4.07;;;;;;;6.80;63.19;99680.75;4827963;29;20100;-76
2021/10/27 12:25:33;;;;;;;2.45;2.25;;;;;;;6.78;62.85;99677.38;4824993;29;20049;-75
2021/10/27 12:28:04;;;;;;;2.13;2.00;;;;;;;6.78;62.99;99672.19;4836199;29;20054;-75
2021/10/27 12:30:38;;;;;;;1.60;1.58;;;;;;;6.77;62.95;99692.09;4835978;29;20581;-77
2021/10/27 12:33:05;;;;;;;3.85;3.55;;;;;;;6.75;63.43;99698.25;4831923;29;20098;-74
2021/10/27 12:35:32;;;;;;;3.85;2.58;;;;;;;6.75;63.46;99699.09;4834989;29;20050;-77
2021/10/27 12:38:21;;;;;;;1.50;1.50;;;;;;;6.77;63.61;99699.88;4820925;29;20049;-75
2021/10/27 12:40:49;;;;;;;11.50;3.45;;;;;;;6.81;63.14;99688.47;4836127;29;20463;-73
2021/10/27 12:43:16;;;;;;;2.80;2.70;;;;;;;6.78;63.03;99698.13;4835740;29;20110;-75
2021/10/27 12:45:48;;;;;;;1.23;1.17;;;;;;;6.79;62.98;99705.00;4804179;29;20064;-77
2021/10/27 12:48:19;;;;;;;3.20;3.00;;;;;;;6.74;63.36;99691.41;4812588;29;20058;-75
2021/10/27 12:50:55;;;;;;;4.97;3.00;;;;;;;6.79;63.44;99699.81;4803508;29;20058;-75
2021/10/27 12:53:35;;;;;;;6.07;1.88;;;;;;;6.81;63.22;99703.16;4802775;29;20054;-77
2021/10/27 12:56:14;;;;;;;2.47;2.38;;;;;;;6.76;63.46;99687.81;4819070;29;20058;-80
2021/10/27 12:58:46;;;;;;;3.00;2.88;;;;;;;6.75;63.84;99698.25;4818749;29;20394;-79
2021/10/27 13:12:22;;;;;;;2.03;2.00;;;;;;;6.74;64.18;99732.91;4820986;29;20140;-79
2021/10/27 13:23:36;;;;;;;2.20;1.00;;;;;;;6.70;65.11;99746.91;4837502;29;20532;-78
2021/10/27 13:31:28;;;;;;;2.28;2.20;;;;;;;6.67;65.34;99760.84;4837534;29;20076;-76
2021/10/27 13:33:54;;;;;;;2.38;2.28;;;;;;;6.64;65.82;99763.53;4821598;29;20057;-75
2021/10/27 13:36:20;;;;;;;2.63;2.35;;;;;;;6.65;66.19;99770.41;4821613;29;20061;-77
2021/10/27 13:38:46;;;;;;;1.42;1.33;;;;;;;6.58;66.36;99753.41;4820923;29;20050;-76
2021/10/27 13:41:12;;;;;;;2.47;2.28;;;;;;;6.61;66.07;99755.88;4803216;29;20597;-75
2021/10/27 13:43:46;;;;;;;3.22;3.03;;;;;;;6.62;66.46;99762.75;4803980;29;20054;-76
2021/10/27 14:08:14;;;;;;;2.50;2.30;;;;;;;6.55;67.21;99769.09;4817538;29;20054;-75
2021/10/27 14:10:46;;;;;;;1.38;1.38;;;;;;;6.45;67.58;99764.31;4802024;29;20050;-74
2021/10/27 14:15:51;;;;;;;5.07;3.38;;;;;;;6.43;68.10;99768.75;4837071;29;20398;-74
2021/10/27 14:58:50;;;;;;;0.65;0.65;;;;;;;6.25;70.09;99781.50;4823532;29;20061;-77
2021/10/27 15:21:13;;;;;;;1.40;1.30;;;;;;;6.23;70.73;99814.44;4818603;29;20144;-76
2021/10/27 15:29:20;;;;;;;1.80;1.73;;;;;;;6.29;70.74;99818.53;4835322;29;20117;-76
2021/10/27 15:42:52;;;;;;;0.95;0.95;;;;;;;6.25;70.56;99829.91;4845092;29;20156;-78
2021/10/27 15:51:00;;;;;;;1.58;1.58;;;;;;;6.25;70.43;99825.56;4861565;29;20142;-78
2021/10/27 15:53:26;;;;;;;1.70;1.65;;;;;;;6.26;70.71;99816.91;4828348;29;20075;-79
2021/10/27 15:55:53;;;;;;;1.48;1.42;;;;;;;6.28;70.53;99830.63;4856010;29;20083;-78
2021/10/27 15:58:19;;;;;;;1.13;1.13;;;;;;;6.26;70.35;99840.22;4861451;29;20145;-80
2021/10/27 16:00:46;;;;;;;1.90;1.90;;;;;;;6.24;70.82;99826.50;4828377;29;20536;-81
2021/10/27 16:03:15;;;;;;;1.98;1.88;;;;;;;6.25;70.52;99825.56;4860562;29;20057;-80
2021/10/27 16:05:43;;;;;;;2.28;1.42;;;;;;;6.25;70.66;99827.31;4844919;29;20101;-79
2021/10/27 16:08:15;;;;;;;1.00;1.00;;;;;;;6.16;71.42;99823.31;4866327;29;20063;-80
2021/10/27 16:10:43;;;;;;;2.95;2.20;;;;;;;6.18;71.14;99823.28;4843181;29;20049;-80
2021/10/27 16:13:10;;;;;;;2.50;2.33;;;;;;;6.22;70.91;99817.06;4827784;29;20428;-79
2021/10/27 16:18:08;;;;;;;1.73;1.63;;;;;;;6.14;71.56;99817.38;4854354;29;20096;-77
2021/10/27 16:20:35;;;;;;;1.67;1.50;;;;;;;6.16;71.73;99815.56;4819454;29;20049;-78
2021/10/27 16:23:01;;;;;;;2.95;2.75;;;;;;;6.16;71.71;99823.31;4837597;29;20125;-79
2021/10/27 16:25:28;;;;;;;2.95;2.78;;;;;;;6.19;72.06;99818.03;4838972;29;20793;-78
2021/10/27 16:27:58;;;;;;;1.30;1.30;;;;;;;6.18;71.99;99826.69;4836929;29;20057;-77
2021/10/27 16:30:26;;;;;;;1.05;1.05;;;;;;;6.20;72.17;99819.72;4833184;29;20054;-78
2021/10/27 16:32:53;;;;;;;2.30;2.20;;;;;;;6.23;72.28;99819.59;4829427;29;20518;-78
2021/10/27 16:35:19;;;;;;;1.05;1.05;;;;;;;6.22;72.57;99812.72;4831981;29;20050;-77